Time;durP1;ratioP1;P1;durP2;ratioP2;P2;SDS_P1;SDS_P2;PMS_P1;PMS_P2;Temp;Humidity;BMP_temperature;BMP_pressure;BME280_temperature;BME280_humidity;BME280_pressure;Samples;Min_cycle;Max_cycle;Signal;HPM_P1;HPM_P2
2022/09/11 00:00:50;;;;;;;0.70;0.50;;;17.00;95.70;;;;;;5070892;28;20381;-77
2022/09/11 00:03:18;;;;;;;0.30;0.30;;;17.00;95.80;;;;;;5070412;28;20488;-78
2022/09/11 00:05:44;;;;;;;0.40;0.40;;;17.00;95.90;;;;;;5071237;28;20514;-78
2022/09/11 00:08:12;;;;;;;0.40;0.40;;;16.90;96.00;;;;;;5070932;28;20028;-76
2022/09/11 00:10:41;;;;;;;0.60;0.40;;;16.90;96.10;;;;;;5071242;28;20028;-78
2022/09/11 00:13:13;;;;;;;0.40;0.40;;;16.90;96.20;;;;;;5071041;28;20112;-77
2022/09/11 00:15:43;;;;;;;0.60;0.55;;;16.90;96.30;;;;;;5071570;28;20028;-78
2022/09/11 00:18:12;;;;;;;0.60;0.50;;;16.90;96.30;;;;;;5071005;28;20029;-77
2022/09/11 00:20:38;;;;;;;1.92;0.60;;;16.90;96.40;;;;;;5071291;28;20048;-78
2022/09/11 00:23:04;;;;;;;0.57;0.55;;;16.90;96.40;;;;;;5070865;28;20029;-77
2022/09/11 00:25:39;;;;;;;1.25;0.50;;;16.90;96.50;;;;;;5052871;28;20036;-77
2022/09/11 00:28:05;;;;;;;0.90;0.50;;;16.90;96.60;;;;;;5071322;28;20027;-77
2022/09/11 00:30:32;;;;;;;1.92;0.40;;;16.90;96.70;;;;;;5070685;28;20097;-77
2022/09/11 00:32:58;;;;;;;0.55;0.45;;;16.90;96.80;;;;;;5091011;28;20123;-77
2022/09/11 00:35:24;;;;;;;1.45;0.70;;;16.80;96.80;;;;;;5091078;28;20032;-78
2022/09/11 00:37:50;;;;;;;2.03;0.70;;;16.80;97.00;;;;;;5091574;28;20036;-77
2022/09/11 00:40:17;;;;;;;0.60;0.60;;;16.80;97.30;;;;;;5090485;28;20032;-77
2022/09/11 00:42:43;;;;;;;1.50;0.60;;;16.80;97.30;;;;;;5091028;28;20059;-77
2022/09/11 00:45:20;;;;;;;0.52;0.50;;;16.80;97.50;;;;;;5091087;28;20105;-78
2022/09/11 00:47:47;;;;;;;0.98;0.60;;;16.80;97.70;;;;;;5091107;28;20048;-78
2022/09/11 00:50:16;;;;;;;0.65;0.50;;;16.80;97.80;;;;;;5090601;28;20024;-76
2022/09/11 00:53:00;;;;;;;1.67;0.80;;;16.80;97.90;;;;;;5090811;28;20020;-78
2022/09/11 00:55:31;;;;;;;0.50;0.50;;;16.80;97.90;;;;;;5072474;28;20377;-78
2022/09/11 00:58:06;;;;;;;0.82;0.57;;;16.80;98.00;;;;;;5090538;28;20484;-77
2022/09/11 01:00:33;;;;;;;1.67;0.50;;;16.80;98.00;;;;;;5090738;28;20243;-77
2022/09/11 01:02:59;;;;;;;0.40;0.40;;;16.80;98.00;;;;;;5091076;28;20056;-77
2022/09/11 01:05:31;;;;;;;1.58;0.57;;;16.80;98.00;;;;;;5072429;28;20447;-77
2022/09/11 01:07:56;;;;;;;0.50;0.47;;;16.80;98.30;;;;;;5091252;28;20063;-77
2022/09/11 01:10:46;;;;;;;0.77;0.57;;;16.80;98.00;;;;;;5072554;28;20113;-77
2022/09/11 01:13:31;;;;;;;0.60;0.60;;;16.90;97.90;;;;;;5094795;28;20092;-78
2022/09/11 01:16:13;;;;;;;1.00;0.50;;;16.80;98.10;;;;;;5094700;28;20020;-78
2022/09/11 01:19:01;;;;;;;0.52;0.50;;;16.80;98.20;;;;;;5093864;28;20490;-77
2022/09/11 01:21:33;;;;;;;0.93;0.60;;;16.80;98.30;;;;;;5093007;28;20051;-77
2022/09/11 01:24:26;;;;;;;0.85;0.57;;;16.80;98.40;;;;;;5094341;28;20039;-78
2022/09/11 01:27:30;;;;;;;1.65;0.63;;;16.80;98.60;;;;;;5094180;28;20024;-76
2022/09/11 01:30:06;;;;;;;0.50;0.50;;;16.80;98.70;;;;;;5071357;28;20492;-77
2022/09/11 01:32:54;;;;;;;2.05;0.65;;;16.80;98.80;;;;;;5093237;28;20626;-76
2022/09/11 01:35:23;;;;;;;1.05;0.60;;;16.80;99.00;;;;;;5075404;28;20074;-77
2022/09/11 01:38:04;;;;;;;0.82;0.47;;;16.80;99.00;;;;;;5093745;28;20433;-77
2022/09/11 01:40:39;;;;;;;0.50;0.50;;;16.80;99.00;;;;;;5075640;28;20073;-77
2022/09/11 01:43:14;;;;;;;0.88;0.60;;;16.80;98.90;;;;;;5093931;28;20048;-76
2022/09/11 01:45:44;;;;;;;0.90;0.50;;;16.80;99.00;;;;;;5093938;28;20102;-76
2022/09/11 01:48:14;;;;;;;1.05;0.65;;;16.80;99.00;;;;;;5094406;28;20024;-77
2022/09/11 01:50:44;;;;;;;0.60;0.60;;;16.80;99.00;;;;;;5094326;28;20076;-77
2022/09/11 01:53:13;;;;;;;0.47;0.40;;;16.80;99.00;;;;;;5094542;28;20044;-77
2022/09/11 01:55:50;;;;;;;1.10;0.80;;;16.90;99.00;;;;;;5097602;28;20048;-77
2022/09/11 01:58:28;;;;;;;1.08;0.60;;;16.90;99.00;;;;;;5101739;28;20075;-78
2022/09/11 02:00:59;;;;;;;1.63;0.50;;;16.90;99.00;;;;;;5099766;28;20065;-77
2022/09/11 02:03:37;;;;;;;0.50;0.50;;;16.80;99.10;;;;;;5097401;28;20023;-77
2022/09/11 02:06:27;;;;;;;0.55;0.55;;;16.90;99.00;;;;;;5093853;28;20764;-78
2022/09/11 02:08:58;;;;;;;1.00;0.50;;;16.90;99.10;;;;;;5094104;28;20024;-77
2022/09/11 02:11:24;;;;;;;2.65;0.50;;;16.90;99.00;;;;;;5093820;28;20036;-76
2022/09/11 02:14:12;;;;;;;0.60;0.50;;;16.90;98.70;;;;;;5093090;28;20413;-77
2022/09/11 02:16:53;;;;;;;1.05;0.77;;;16.90;99.00;;;;;;5092595;28;20028;-76
2022/09/11 02:19:26;;;;;;;0.88;0.50;;;16.90;98.60;;;;;;5092491;28;20031;-76
2022/09/11 02:21:52;;;;;;;1.30;0.60;;;16.90;98.70;;;;;;5092511;28;20040;-77
2022/09/11 02:24:21;;;;;;;0.98;0.55;;;16.90;98.80;;;;;;5092018;28;20031;-75
2022/09/11 02:26:54;;;;;;;0.88;0.50;;;16.90;99.10;;;;;;5092794;28;20020;-76
2022/09/11 02:29:20;;;;;;;0.60;0.60;;;16.90;98.80;;;;;;5092341;28;20032;-76
2022/09/11 02:31:46;;;;;;;0.57;0.57;;;16.90;98.90;;;;;;5092506;28;20423;-77
2022/09/11 02:34:13;;;;;;;0.73;0.60;;;16.90;99.00;;;;;;5093214;28;20024;-77
2022/09/11 02:37:02;;;;;;;1.15;0.70;;;16.90;99.10;;;;;;5093144;28;20032;-78
2022/09/11 02:39:59;;;;;;;2.72;0.70;;;16.80;99.30;;;;;;5093169;28;20434;-77
2022/09/11 02:42:43;;;;;;;0.68;0.68;;;16.80;99.40;;;;;;5080570;28;20048;-77
2022/09/11 02:45:08;;;;;;;2.35;0.50;;;16.80;99.20;;;;;;5093298;28;20092;-77
2022/09/11 02:48:00;;;;;;;0.88;0.50;;;16.80;99.40;;;;;;5092575;28;20032;-77
2022/09/11 02:50:54;;;;;;;1.42;0.80;;;16.80;99.40;;;;;;5092782;28;20392;-77
2022/09/11 02:54:01;;;;;;;0.52;0.45;;;16.80;99.40;;;;;;5092488;28;20080;-77
2022/09/11 02:56:47;;;;;;;1.27;0.35;;;16.80;99.40;;;;;;5092720;28;20029;-77
2022/09/11 02:59:25;;;;;;;2.08;0.60;;;16.80;99.30;;;;;;5092913;28;20158;-77
2022/09/11 03:02:00;;;;;;;2.30;0.63;;;16.80;99.50;;;;;;5092883;28;20103;-77
2022/09/11 03:04:28;;;;;;;1.25;0.75;;;16.80;99.50;;;;;;5092558;28;20096;-77
2022/09/11 03:06:55;;;;;;;3.20;0.65;;;16.80;99.70;;;;;;5092673;28;20046;-78
2022/09/11 03:09:21;;;;;;;3.25;0.60;;;16.80;99.70;;;;;;5092740;28;20034;-77
2022/09/11 03:11:48;;;;;;;2.38;0.60;;;16.70;99.80;;;;;;5092268;28;20111;-77
2022/09/11 03:14:14;;;;;;;0.70;0.70;;;16.80;99.80;;;;;;5091594;28;20023;-77
2022/09/11 03:16:40;;;;;;;1.38;0.98;;;16.70;99.90;;;;;;5090900;28;20030;-77
2022/09/11 03:19:06;;;;;;;1.00;0.90;;;16.70;99.90;;;;;;5091657;28;20024;-77
2022/09/11 03:21:33;;;;;;;1.20;0.60;;;16.70;99.90;;;;;;5091235;28;20032;-78
2022/09/11 03:23:59;;;;;;;2.55;0.68;;;16.70;99.90;;;;;;5090100;28;20489;-78
2022/09/11 03:26:26;;;;;;;0.70;0.70;;;16.70;99.90;;;;;;5092507;28;20032;-78
2022/09/11 03:28:52;;;;;;;1.05;0.65;;;16.70;99.90;;;;;;5093184;28;20024;-77
2022/09/11 03:31:18;;;;;;;0.70;0.70;;;16.70;99.90;;;;;;5092307;28;20079;-77
2022/09/11 03:33:43;;;;;;;0.65;0.60;;;16.70;99.90;;;;;;5092166;28;20078;-77
2022/09/11 03:36:10;;;;;;;0.50;0.50;;;16.70;99.90;;;;;;5092663;28;20130;-77
2022/09/11 03:38:36;;;;;;;0.50;0.50;;;16.70;99.90;;;;;;5091730;28;20334;-77
2022/09/11 03:41:02;;;;;;;1.17;0.40;;;16.70;99.90;;;;;;5092389;28;20107;-77
2022/09/11 03:43:28;;;;;;;1.55;0.82;;;16.70;99.90;;;;;;5073373;28;20055;-78
2022/09/11 03:45:54;;;;;;;1.38;0.65;;;16.60;99.90;;;;;;5091444;28;20032;-78
2022/09/11 03:48:20;;;;;;;1.75;0.55;;;16.60;99.90;;;;;;5093494;28;20066;-77
2022/09/11 03:50:46;;;;;;;0.57;0.57;;;16.60;99.90;;;;;;5092738;28;20086;-77
2022/09/11 03:53:13;;;;;;;1.30;0.50;;;16.60;99.90;;;;;;5092512;28;20054;-77
2022/09/11 03:55:39;;;;;;;3.17;0.70;;;16.60;99.90;;;;;;5091509;28;20381;-77
2022/09/11 03:58:06;;;;;;;0.98;0.65;;;16.60;99.90;;;;;;5092199;28;20035;-77
2022/09/11 04:00:32;;;;;;;2.58;0.88;;;16.60;99.90;;;;;;5091691;28;20485;-78
2022/09/11 04:02:59;;;;;;;1.40;0.65;;;16.60;99.90;;;;;;5092137;28;20062;-77
2022/09/11 04:05:25;;;;;;;0.60;0.60;;;16.60;99.90;;;;;;5091806;28;20036;-76
2022/09/11 04:07:52;;;;;;;1.02;0.60;;;16.60;99.90;;;;;;5091941;28;20467;-77
2022/09/11 04:10:18;;;;;;;0.68;0.50;;;16.60;99.90;;;;;;5092150;28;20035;-77
2022/09/11 04:12:45;;;;;;;0.80;0.60;;;16.60;99.90;;;;;;5092066;28;20367;-77
2022/09/11 04:15:11;;;;;;;2.70;0.63;;;16.60;99.90;;;;;;5074073;28;20474;-77
2022/09/11 04:17:37;;;;;;;0.95;0.65;;;16.60;99.90;;;;;;5091591;28;20119;-76
2022/09/11 04:20:03;;;;;;;0.75;0.50;;;16.60;99.90;;;;;;5091685;28;20032;-77
2022/09/11 04:22:29;;;;;;;3.22;0.95;;;16.60;99.90;;;;;;5091705;28;20036;-76
2022/09/11 04:24:56;;;;;;;1.13;0.63;;;16.60;99.90;;;;;;5091967;28;20027;-77
2022/09/11 04:27:22;;;;;;;0.43;0.43;;;16.60;99.90;;;;;;5091578;28;20195;-77
2022/09/11 04:29:48;;;;;;;2.28;0.68;;;16.60;99.90;;;;;;5091425;28;20043;-77
2022/09/11 04:32:14;;;;;;;0.93;0.80;;;16.60;99.90;;;;;;5091465;28;20048;-77
2022/09/11 04:34:40;;;;;;;1.05;0.63;;;16.60;99.90;;;;;;5090726;28;20464;-77
2022/09/11 04:37:05;;;;;;;2.78;0.55;;;16.60;99.90;;;;;;5091031;28;20034;-77
2022/09/11 04:39:31;;;;;;;1.70;0.60;;;16.60;99.90;;;;;;5090893;28;20457;-76
2022/09/11 04:41:57;;;;;;;3.33;0.80;;;16.70;99.90;;;;;;5091384;28;20030;-77
2022/09/11 04:44:24;;;;;;;1.60;0.80;;;16.60;99.90;;;;;;5091051;28;20020;-77
2022/09/11 04:46:50;;;;;;;1.50;0.88;;;16.60;99.90;;;;;;5093459;28;20044;-77
2022/09/11 04:49:16;;;;;;;0.98;0.70;;;16.60;99.90;;;;;;5095647;28;20043;-77
2022/09/11 04:51:42;;;;;;;1.00;0.90;;;16.60;99.90;;;;;;5087300;28;20024;-77
2022/09/11 04:54:12;;;;;;;3.10;0.95;;;16.60;99.90;;;;;;5088307;28;20348;-77
2022/09/11 04:56:38;;;;;;;0.90;0.88;;;16.60;99.90;;;;;;5094701;28;20062;-77
2022/09/11 04:59:08;;;;;;;1.25;0.80;;;16.60;99.90;;;;;;5094083;28;20101;-77
2022/09/11 05:01:34;;;;;;;2.70;0.75;;;16.60;99.90;;;;;;5074623;28;20039;-76
2022/09/11 05:04:00;;;;;;;1.05;0.73;;;16.60;99.90;;;;;;5075284;28;20036;-77
2022/09/11 05:06:29;;;;;;;0.80;0.68;;;16.60;99.90;;;;;;5093876;28;20093;-77
2022/09/11 05:08:55;;;;;;;1.20;0.80;;;16.60;99.90;;;;;;5094705;28;20043;-76
2022/09/11 05:11:21;;;;;;;1.13;0.90;;;16.60;99.90;;;;;;5095302;28;20027;-77
2022/09/11 05:13:47;;;;;;;1.25;1.00;;;16.60;99.90;;;;;;5094558;28;20016;-77
2022/09/11 05:16:15;;;;;;;1.10;1.00;;;16.60;99.90;;;;;;5095162;28;20097;-77
2022/09/11 05:18:42;;;;;;;2.20;1.05;;;16.60;99.90;;;;;;5093935;28;20032;-77
2022/09/11 05:21:13;;;;;;;0.90;0.80;;;16.70;99.90;;;;;;5094532;28;20529;-78
2022/09/11 05:23:39;;;;;;;1.15;0.90;;;16.60;99.90;;;;;;5094460;28;20029;-77
2022/09/11 05:26:14;;;;;;;2.70;1.00;;;16.70;99.90;;;;;;5095017;28;20032;-77
2022/09/11 05:28:39;;;;;;;1.58;0.95;;;16.70;99.90;;;;;;5076180;28;20452;-77
2022/09/11 05:31:14;;;;;;;2.15;0.90;;;16.70;99.90;;;;;;5094682;28;20143;-77
2022/09/11 05:33:40;;;;;;;1.38;0.80;;;16.70;99.90;;;;;;5093944;28;20455;-77
2022/09/11 05:36:06;;;;;;;1.55;0.98;;;16.80;99.90;;;;;;5094499;28;20112;-78
2022/09/11 05:38:35;;;;;;;2.20;0.77;;;16.80;99.90;;;;;;5094523;28;20056;-78
2022/09/11 05:41:04;;;;;;;0.80;0.60;;;16.80;99.90;;;;;;5091047;28;20066;-79
2022/09/11 05:43:30;;;;;;;0.55;0.55;;;16.80;99.90;;;;;;5090847;28;20024;-76
2022/09/11 05:45:58;;;;;;;1.27;0.68;;;16.90;99.80;;;;;;5088078;28;20024;-78
2022/09/11 05:48:26;;;;;;;1.13;0.50;;;16.90;99.70;;;;;;5088839;28;20062;-78
2022/09/11 05:50:53;;;;;;;0.80;0.70;;;16.90;99.60;;;;;;5096526;28;20146;-75
2022/09/11 05:53:20;;;;;;;0.60;0.55;;;16.90;99.70;;;;;;5096571;28;20074;-75
2022/09/11 05:55:46;;;;;;;1.25;0.70;;;16.90;99.60;;;;;;5093170;28;20032;-75
2022/09/11 05:58:12;;;;;;;0.55;0.50;;;17.00;99.80;;;;;;5087997;28;20028;-75
2022/09/11 06:00:39;;;;;;;0.90;0.63;;;17.00;99.70;;;;;;5091891;28;20040;-75
2022/09/11 06:03:06;;;;;;;1.35;1.25;;;17.00;99.80;;;;;;5093866;28;20085;-76
2022/09/11 06:05:32;;;;;;;2.25;0.70;;;17.00;99.80;;;;;;5093701;28;20036;-76
2022/09/11 06:08:00;;;;;;;2.63;0.73;;;17.00;99.90;;;;;;5093574;28;20140;-76
2022/09/11 06:10:26;;;;;;;0.60;0.60;;;17.00;99.90;;;;;;5093467;28;20054;-76
2022/09/11 06:12:51;;;;;;;1.83;0.70;;;17.00;99.90;;;;;;5093242;28;20028;-76
2022/09/11 06:15:17;;;;;;;1.63;0.70;;;17.00;99.90;;;;;;5093549;28;20464;-76
2022/09/11 06:17:43;;;;;;;1.60;0.70;;;17.00;99.90;;;;;;5093516;28;20032;-76
2022/09/11 06:20:11;;;;;;;1.70;0.80;;;17.00;99.90;;;;;;5092264;28;20064;-76
2022/09/11 06:22:37;;;;;;;0.73;0.68;;;17.00;99.90;;;;;;5092151;28;20032;-76
2022/09/11 06:25:03;;;;;;;1.58;0.90;;;17.00;99.90;;;;;;5092557;28;20021;-76
2022/09/11 06:27:29;;;;;;;0.90;0.70;;;17.00;99.90;;;;;;5093310;28;20039;-75
2022/09/11 06:29:55;;;;;;;2.00;0.90;;;17.10;99.90;;;;;;5092013;28;20036;-77
2022/09/11 06:32:21;;;;;;;0.90;0.73;;;17.10;99.90;;;;;;5093495;28;20043;-77
2022/09/11 06:34:46;;;;;;;0.68;0.60;;;17.00;99.90;;;;;;5093077;28;20111;-76
2022/09/11 06:37:12;;;;;;;1.17;0.90;;;17.10;99.90;;;;;;5074554;28;20483;-76
2022/09/11 06:39:38;;;;;;;0.70;0.70;;;17.10;99.90;;;;;;5092513;28;20116;-75
2022/09/11 06:42:05;;;;;;;3.30;0.80;;;17.10;99.90;;;;;;5092521;28;20068;-75
2022/09/11 06:44:30;;;;;;;0.98;0.93;;;17.10;99.90;;;;;;5092931;28;20035;-76
2022/09/11 06:46:59;;;;;;;2.50;1.10;;;17.10;99.90;;;;;;5092485;28;20027;-75
2022/09/11 06:49:24;;;;;;;2.55;1.20;;;17.10;99.90;;;;;;5089036;28;20492;-72
2022/09/11 06:51:51;;;;;;;4.13;1.10;;;17.10;99.90;;;;;;5091980;28;20135;-69
2022/09/11 06:54:16;;;;;;;2.70;0.95;;;17.20;99.90;;;;;;5089263;28;20468;-69
2022/09/11 06:56:44;;;;;;;1.27;1.02;;;17.30;99.90;;;;;;5088585;28;20051;-75
2022/09/11 06:59:09;;;;;;;0.88;0.82;;;17.30;99.90;;;;;;5091167;28;20031;-73
2022/09/11 07:01:35;;;;;;;1.33;0.90;;;17.30;99.90;;;;;;5091723;28;20413;-74
2022/09/11 07:04:01;;;;;;;0.80;0.77;;;17.30;99.90;;;;;;5092273;28;20020;-73
2022/09/11 07:06:29;;;;;;;1.67;0.80;;;17.30;99.90;;;;;;5092480;28;20024;-73
2022/09/11 07:09:01;;;;;;;2.05;0.77;;;17.20;99.90;;;;;;5091306;28;20060;-74
2022/09/11 07:11:32;;;;;;;2.17;1.10;;;17.20;99.90;;;;;;5092303;28;20102;-73
2022/09/11 07:14:05;;;;;;;0.95;0.85;;;17.10;99.90;;;;;;5091840;28;20031;-74
2022/09/11 07:16:34;;;;;;;1.33;1.10;;;17.10;99.90;;;;;;5091801;28;20480;-74
2022/09/11 07:19:00;;;;;;;1.20;0.80;;;17.10;99.90;;;;;;5091527;28;20036;-74
2022/09/11 07:21:26;;;;;;;3.15;1.10;;;17.20;99.90;;;;;;5092027;28;20069;-73
2022/09/11 07:23:55;;;;;;;1.92;0.93;;;17.20;99.90;;;;;;5091814;28;20067;-73
2022/09/11 07:26:23;;;;;;;0.88;0.77;;;17.20;99.90;;;;;;5092375;28;20048;-73
2022/09/11 07:28:50;;;;;;;1.27;0.90;;;17.20;99.90;;;;;;5091652;28;20101;-73
2022/09/11 07:31:21;;;;;;;1.13;1.02;;;17.20;99.90;;;;;;5091699;28;20046;-73
2022/09/11 07:33:48;;;;;;;1.65;0.80;;;17.20;99.90;;;;;;5091805;28;20031;-72
2022/09/11 07:36:19;;;;;;;1.58;0.93;;;17.20;99.90;;;;;;5091996;28;20020;-73
2022/09/11 07:38:46;;;;;;;1.52;0.95;;;17.20;99.90;;;;;;5091066;28;20463;-73
2022/09/11 07:41:13;;;;;;;1.83;1.00;;;17.30;99.90;;;;;;5092104;28;20036;-73
2022/09/11 07:43:40;;;;;;;2.17;0.93;;;17.30;99.90;;;;;;5091541;28;20028;-73
2022/09/11 07:46:08;;;;;;;1.42;1.15;;;17.30;99.90;;;;;;5091741;28;20024;-72
2022/09/11 07:48:34;;;;;;;3.08;1.23;;;17.30;99.90;;;;;;5091642;28;20105;-72
2022/09/11 07:51:03;;;;;;;1.27;0.98;;;17.30;99.90;;;;;;5091179;28;20139;-73
2022/09/11 07:53:39;;;;;;;1.00;0.90;;;17.40;99.60;;;;;;5091676;28;20055;-74
2022/09/11 07:56:08;;;;;;;1.95;1.17;;;17.50;99.50;;;;;;5091717;28;20112;-74
2022/09/11 07:58:39;;;;;;;1.75;1.20;;;17.50;99.50;;;;;;5091557;28;20480;-72
2022/09/11 08:01:06;;;;;;;1.50;1.05;;;17.50;98.80;;;;;;5091495;28;20444;-73
2022/09/11 08:03:33;;;;;;;1.80;1.10;;;17.50;98.60;;;;;;5092030;28;20028;-73
2022/09/11 08:06:06;;;;;;;1.33;1.00;;;17.60;98.50;;;;;;5091402;28;20035;-73
2022/09/11 08:08:33;;;;;;;1.30;0.93;;;18.00;97.80;;;;;;5092296;28;20028;-75
2022/09/11 08:11:08;;;;;;;1.50;0.90;;;18.20;96.80;;;;;;5091468;28;20449;-72
2022/09/11 08:13:34;;;;;;;1.17;0.93;;;18.30;96.00;;;;;;5091776;28;20032;-73
2022/09/11 08:16:00;;;;;;;1.25;1.08;;;18.50;95.80;;;;;;5073275;28;20120;-73
2022/09/11 08:18:26;;;;;;;3.15;1.00;;;18.90;95.00;;;;;;5091578;28;20021;-73
2022/09/11 08:20:53;;;;;;;1.30;0.90;;;20.20;91.90;;;;;;5092119;28;20028;-73
2022/09/11 08:23:20;;;;;;;1.90;0.98;;;20.50;89.50;;;;;;5095538;28;20060;-73
2022/09/11 08:25:46;;;;;;;1.65;0.80;;;20.90;89.30;;;;;;5095053;28;20081;-73
2022/09/11 08:28:12;;;;;;;2.75;1.02;;;22.00;84.60;;;;;;5095789;28;20028;-72
2022/09/11 08:30:38;;;;;;;1.40;0.90;;;22.60;78.90;;;;;;5094963;28;20130;-72
2022/09/11 08:33:05;;;;;;;1.50;0.77;;;22.40;75.40;;;;;;5095147;28;20040;-73
2022/09/11 08:35:32;;;;;;;1.25;0.80;;;21.60;76.80;;;;;;5095368;28;20028;-73
2022/09/11 08:37:58;;;;;;;0.80;0.80;;;21.20;79.00;;;;;;5094855;28;20139;-72
2022/09/11 08:40:23;;;;;;;0.98;0.80;;;20.90;80.90;;;;;;5095173;28;20122;-72
2022/09/11 08:42:51;;;;;;;2.05;0.93;;;20.70;83.20;;;;;;5094442;28;20056;-73
2022/09/11 08:45:20;;;;;;;1.23;0.90;;;20.50;83.20;;;;;;5094900;28;20020;-73
2022/09/11 08:47:52;;;;;;;2.05;1.10;;;20.40;84.70;;;;;;5094451;28;20028;-73
2022/09/11 08:50:30;;;;;;;1.38;1.00;;;20.30;85.30;;;;;;5094689;28;20047;-74
2022/09/11 08:52:56;;;;;;;2.00;1.10;;;20.10;86.40;;;;;;5076222;28;20451;-73
2022/09/11 08:56:02;;;;;;;2.35;1.25;;;20.00;87.00;;;;;;5094820;28;20043;-73
2022/09/11 08:59:09;;;;;;;1.10;1.00;;;19.80;87.20;;;;;;5011960;28;20427;-72
2022/09/11 09:01:40;;;;;;;1.23;1.00;;;19.70;88.30;;;;;;5094432;28;20501;-72
2022/09/11 09:04:15;;;;;;;0.80;0.80;;;19.60;90.00;;;;;;5094661;28;20419;-73
2022/09/11 09:06:44;;;;;;;1.58;1.05;;;19.50;90.00;;;;;;5075932;28;20028;-73
2022/09/11 09:09:14;;;;;;;1.13;0.95;;;19.40;90.20;;;;;;5094724;28;20472;-73
2022/09/11 09:11:54;;;;;;;1.98;0.88;;;19.40;90.60;;;;;;5094352;28;20027;-73
2022/09/11 09:14:51;;;;;;;2.08;1.10;;;19.30;90.30;;;;;;5094432;28;20024;-73
2022/09/11 09:17:22;;;;;;;1.35;1.20;;;19.30;90.30;;;;;;5078144;28;20047;-74
2022/09/11 09:19:59;;;;;;;5.50;0.90;;;19.30;90.60;;;;;;5093951;28;20023;-74
2022/09/11 09:22:31;;;;;;;1.95;0.90;;;19.40;90.50;;;;;;5094661;28;20032;-73
2022/09/11 09:25:05;;;;;;;3.45;1.23;;;19.30;90.40;;;;;;5094275;28;20016;-72
2022/09/11 09:27:38;;;;;;;1.77;0.80;;;19.30;90.40;;;;;;5094771;28;20123;-73
2022/09/11 09:30:12;;;;;;;1.85;1.10;;;19.30;91.00;;;;;;5093597;28;20035;-72
2022/09/11 09:32:49;;;;;;;2.35;1.08;;;19.30;90.80;;;;;;5077495;28;20524;-72
2022/09/11 09:35:25;;;;;;;1.20;0.82;;;19.40;91.50;;;;;;5073879;28;20025;-72
2022/09/11 09:37:51;;;;;;;1.13;0.80;;;19.60;91.10;;;;;;5073860;28;20020;-73
2022/09/11 09:40:17;;;;;;;0.80;0.80;;;19.80;90.70;;;;;;5074136;28;20479;-74
2022/09/11 09:42:51;;;;;;;1.92;0.73;;;20.00;90.20;;;;;;5073246;28;20115;-74
2022/09/11 09:45:23;;;;;;;3.45;0.93;;;20.30;89.10;;;;;;5073857;28;20020;-73
2022/09/11 09:47:49;;;;;;;1.33;0.80;;;20.50;86.30;;;;;;5073335;28;20028;-73
2022/09/11 09:50:21;;;;;;;0.93;0.70;;;20.60;85.60;;;;;;5073853;28;20357;-73
2022/09/11 09:52:48;;;;;;;0.80;0.80;;;20.60;84.70;;;;;;5073352;28;20029;-73
2022/09/11 09:55:17;;;;;;;3.33;1.20;;;20.60;88.80;;;;;;5073704;28;20029;-73
2022/09/11 09:57:44;;;;;;;2.60;0.80;;;20.50;90.60;;;;;;5073525;28;20154;-72
2022/09/11 10:00:10;;;;;;;1.58;0.90;;;20.30;91.50;;;;;;5073942;28;20039;-73
2022/09/11 10:02:35;;;;;;;1.15;0.90;;;20.00;92.00;;;;;;5073908;28;20047;-73
2022/09/11 10:05:16;;;;;;;1.80;1.10;;;19.70;93.10;;;;;;5072780;28;20418;-73
2022/09/11 10:07:50;;;;;;;1.40;0.88;;;19.50;94.60;;;;;;5055019;28;20025;-73
2022/09/11 10:10:38;;;;;;;1.20;0.98;;;19.40;95.40;;;;;;5073603;28;20060;-73
2022/09/11 10:13:27;;;;;;;1.58;0.95;;;19.30;96.00;;;;;;5073137;28;20024;-73
2022/09/11 10:15:56;;;;;;;1.42;1.33;;;19.10;96.60;;;;;;5073323;28;20070;-72
2022/09/11 10:18:36;;;;;;;3.15;1.25;;;19.00;98.00;;;;;;5073727;28;20131;-74
2022/09/11 10:21:10;;;;;;;3.90;1.27;;;19.00;98.70;;;;;;5072893;28;20069;-73
2022/09/11 10:23:53;;;;;;;2.28;1.40;;;18.90;99.00;;;;;;5073291;28;20406;-72
2022/09/11 10:26:27;;;;;;;1.80;1.27;;;18.80;99.90;;;;;;5073089;28;20052;-74
2022/09/11 10:28:58;;;;;;;2.72;1.10;;;18.90;99.90;;;;;;5072840;28;20047;-72
2022/09/11 10:31:25;;;;;;;3.72;1.17;;;19.00;99.90;;;;;;5073061;28;20044;-74
2022/09/11 10:33:57;;;;;;;1.27;1.13;;;19.00;99.90;;;;;;5072689;28;20072;-72
2022/09/11 10:36:26;;;;;;;2.47;1.02;;;19.00;99.90;;;;;;5073466;28;20028;-73
2022/09/11 10:38:52;;;;;;;1.02;0.90;;;18.90;98.30;;;;;;5072550;28;20025;-74
2022/09/11 10:41:26;;;;;;;1.42;1.10;;;18.90;97.80;;;;;;5072942;28;20097;-73
2022/09/11 10:44:00;;;;;;;0.90;0.82;;;18.90;97.70;;;;;;5071939;28;20040;-73
2022/09/11 10:46:42;;;;;;;2.25;1.20;;;18.80;98.10;;;;;;5072794;28;20032;-73
2022/09/11 10:49:22;;;;;;;2.67;1.10;;;18.60;99.00;;;;;;5072115;28;20037;-73
2022/09/11 10:52:14;;;;;;;4.30;1.27;;;18.70;99.60;;;;;;5072597;28;20033;-73
2022/09/11 10:54:52;;;;;;;1.55;1.08;;;18.60;99.80;;;;;;5072330;28;20103;-73
2022/09/11 10:57:38;;;;;;;1.50;1.40;;;18.60;99.90;;;;;;5072608;28;20147;-73
2022/09/11 11:00:07;;;;;;;2.00;1.50;;;18.50;99.90;;;;;;5071711;28;20354;-73
2022/09/11 11:02:42;;;;;;;2.20;1.52;;;18.50;99.90;;;;;;5072334;28;20169;-73
2022/09/11 11:05:26;;;;;;;4.30;1.35;;;18.40;99.90;;;;;;5071981;28;20032;-73
2022/09/11 11:08:42;;;;;;;4.20;1.55;;;18.40;99.90;;;;;;5072058;28;20030;-72
2022/09/11 11:11:24;;;;;;;2.67;1.60;;;18.40;99.90;;;;;;5053955;28;20044;-72
2022/09/11 11:13:54;;;;;;;1.58;1.40;;;18.30;99.90;;;;;;5071649;28;20044;-72
2022/09/11 11:16:38;;;;;;;3.80;1.60;;;18.40;99.90;;;;;;5053649;28;20067;-72
2022/09/11 11:19:37;;;;;;;2.20;1.50;;;18.40;99.90;;;;;;5071991;28;20094;-72
2022/09/11 11:22:07;;;;;;;2.00;1.73;;;18.50;99.90;;;;;;5071785;28;20104;-73
2022/09/11 11:25:22;;;;;;;2.85;1.50;;;18.60;99.90;;;;;;5072403;28;20023;-73
2022/09/11 11:28:22;;;;;;;1.73;1.50;;;18.70;99.90;;;;;;5029188;28;20045;-73
2022/09/11 11:31:08;;;;;;;1.25;1.00;;;18.80;99.90;;;;;;5071819;28;20028;-73
2022/09/11 11:34:00;;;;;;;2.05;1.10;;;18.90;99.90;;;;;;5072202;28;20031;-73
2022/09/11 11:36:39;;;;;;;1.10;0.90;;;18.90;99.90;;;;;;5067265;28;20093;-73
2022/09/11 11:39:17;;;;;;;1.08;0.80;;;18.90;99.90;;;;;;5071529;28;20028;-73
2022/09/11 11:41:58;;;;;;;1.90;1.20;;;19.00;99.90;;;;;;5071775;28;20024;-73
2022/09/11 11:44:43;;;;;;;1.40;0.88;;;19.10;99.90;;;;;;5071957;28;20028;-73
2022/09/11 11:47:09;;;;;;;1.63;1.25;;;19.20;99.90;;;;;;5071483;28;20028;-73
2022/09/11 11:49:59;;;;;;;1.83;1.20;;;19.30;99.50;;;;;;5071510;28;20033;-73
2022/09/11 11:52:31;;;;;;;1.33;0.82;;;19.30;97.60;;;;;;5053731;28;20040;-73
2022/09/11 11:55:19;;;;;;;0.90;0.90;;;19.40;96.40;;;;;;5070999;28;20024;-73
2022/09/11 11:58:03;;;;;;;1.25;0.60;;;19.40;96.10;;;;;;5053650;28;20032;-73
2022/09/11 12:00:37;;;;;;;1.02;0.70;;;19.40;95.10;;;;;;5071619;28;20059;-72
2022/09/11 12:03:51;;;;;;;1.48;0.93;;;19.50;95.40;;;;;;5070957;28;20331;-73
2022/09/11 12:06:16;;;;;;;1.02;0.75;;;19.50;94.60;;;;;;5066822;28;20029;-73
2022/09/11 12:08:44;;;;;;;0.85;0.68;;;19.50;95.50;;;;;;5071114;28;20029;-73
2022/09/11 12:11:14;;;;;;;1.20;0.88;;;19.50;94.20;;;;;;5070697;28;20373;-73
2022/09/11 12:13:43;;;;;;;1.40;0.95;;;19.50;93.80;;;;;;5071122;28;20473;-72
2022/09/11 12:16:32;;;;;;;0.65;0.65;;;19.50;94.10;;;;;;5070902;28;20473;-73
2022/09/11 12:19:12;;;;;;;1.40;0.90;;;19.60;94.00;;;;;;5070779;28;20366;-73
2022/09/11 12:21:51;;;;;;;0.80;0.80;;;19.60;94.70;;;;;;5070804;28;20124;-73
2022/09/11 12:24:19;;;;;;;1.02;0.80;;;19.70;94.40;;;;;;5070723;28;20115;-73
2022/09/11 12:26:45;;;;;;;1.50;0.75;;;19.60;93.40;;;;;;5071139;28;20028;-73
2022/09/11 12:29:11;;;;;;;2.08;0.60;;;19.50;93.90;;;;;;5070662;28;20029;-73
2022/09/11 12:31:49;;;;;;;0.55;0.55;;;19.40;94.30;;;;;;5079810;28;20044;-72
2022/09/11 12:34:17;;;;;;;1.08;0.80;;;19.20;95.10;;;;;;5090940;28;20028;-72
2022/09/11 12:36:53;;;;;;;1.60;0.57;;;19.20;95.60;;;;;;5091393;28;20387;-72
2022/09/11 12:39:45;;;;;;;2.00;0.68;;;19.00;95.20;;;;;;5091008;28;20085;-73
2022/09/11 12:42:23;;;;;;;3.10;0.70;;;18.90;96.00;;;;;;5082128;28;20048;-72
2022/09/11 12:44:48;;;;;;;0.50;0.50;;;18.70;95.60;;;;;;5091329;28;20089;-73
2022/09/11 12:47:38;;;;;;;0.47;0.40;;;18.70;95.90;;;;;;5090845;28;20349;-73
2022/09/11 12:50:03;;;;;;;0.45;0.45;;;18.60;95.90;;;;;;5090940;28;20028;-73
2022/09/11 12:52:53;;;;;;;1.10;0.70;;;18.50;96.20;;;;;;5090753;28;20027;-72
2022/09/11 12:55:28;;;;;;;0.68;0.60;;;18.40;96.40;;;;;;5090411;28;20457;-73
2022/09/11 12:57:56;;;;;;;2.05;0.80;;;18.30;96.50;;;;;;5073015;28;20145;-74
2022/09/11 13:00:40;;;;;;;0.57;0.50;;;18.20;97.20;;;;;;5090737;28;20024;-74
2022/09/11 13:03:18;;;;;;;1.58;0.70;;;18.10;97.10;;;;;;5090680;28;20166;-73
2022/09/11 13:05:57;;;;;;;1.25;0.80;;;18.10;97.60;;;;;;5090545;28;20035;-74
2022/09/11 13:08:26;;;;;;;1.92;0.70;;;18.10;97.90;;;;;;5094447;28;20043;-73
2022/09/11 13:10:52;;;;;;;1.75;0.60;;;18.10;97.90;;;;;;5094848;28;20073;-73
2022/09/11 13:13:39;;;;;;;1.27;0.75;;;18.10;98.40;;;;;;5094385;28;20035;-73